sensor_id;sensor_type;location;lat;lon;timestamp;pressure;altitude;pressure_sealevel;temperature;humidity
61898;BME280;47850;50.274;18.908;2022-09-28T00:00:40;96552.95;;;8.46;100.00
61898;BME280;47850;50.274;18.908;2022-09-28T00:03:25;96544.46;;;8.45;100.00
61898;BME280;47850;50.274;18.908;2022-09-28T00:06:11;96546.15;;;8.45;100.00
61898;BME280;47850;50.274;18.908;2022-09-28T00:08:56;96550.02;;;8.44;100.00
61898;BME280;47850;50.274;18.908;2022-09-28T00:11:40;96543.95;;;8.43;100.00
61898;BME280;47850;50.274;18.908;2022-09-28T00:14:25;96533.77;;;8.40;100.00
61898;BME280;47850;50.274;18.908;2022-09-28T00:17:09;96535.39;;;8.37;100.00
61898;BME280;47850;50.274;18.908;2022-09-28T00:19:55;96534.89;;;8.34;100.00
61898;BME280;47850;50.274;18.908;2022-09-28T00:22:40;96531.65;;;8.29;100.00
61898;BME280;47850;50.274;18.908;2022-09-28T00:25:25;96532.55;;;8.25;100.00
61898;BME280;47850;50.274;18.908;2022-09-28T00:28:09;96531.30;;;8.21;100.00
61898;BME280;47850;50.274;18.908;2022-09-28T00:30:53;96533.96;;;8.17;100.00
61898;BME280;47850;50.274;18.908;2022-09-28T00:33:40;96534.78;;;8.11;100.00
61898;BME280;47850;50.274;18.908;2022-09-28T00:36:26;96532.70;;;8.05;100.00
61898;BME280;47850;50.274;18.908;2022-09-28T00:39:14;96530.33;;;8.02;100.00
61898;BME280;47850;50.274;18.908;2022-09-28T00:42:09;96530.34;;;7.99;100.00
61898;BME280;47850;50.274;18.908;2022-09-28T00:44:55;96527.91;;;7.98;100.00
61898;BME280;47850;50.274;18.908;2022-09-28T00:47:47;96528.84;;;7.98;100.00
61898;BME280;47850;50.274;18.908;2022-09-28T00:50:34;96531.50;;;7.99;100.00
61898;BME280;47850;50.274;18.908;2022-09-28T00:53:20;96535.19;;;8.01;100.00
61898;BME280;47850;50.274;18.908;2022-09-28T00:56:08;96531.11;;;8.02;100.00
61898;BME280;47850;50.274;18.908;2022-09-28T00:58:54;96527.52;;;8.03;100.00
61898;BME280;47850;50.274;18.908;2022-09-28T01:01:39;96532.70;;;8.04;100.00
61898;BME280;47850;50.274;18.908;2022-09-28T01:04:24;96534.21;;;8.04;100.00
61898;BME280;47850;50.274;18.908;2022-09-28T01:07:09;96533.14;;;8.05;100.00
61898;BME280;47850;50.274;18.908;2022-09-28T01:09:54;96538.50;;;8.04;100.00
61898;BME280;47850;50.274;18.908;2022-09-28T01:12:38;96539.50;;;8.05;100.00
61898;BME280;47850;50.274;18.908;2022-09-28T01:15:23;96535.77;;;8.07;100.00
61898;BME280;47850;50.274;18.908;2022-09-28T01:18:16;96537.16;;;8.07;100.00
61898;BME280;47850;50.274;18.908;2022-09-28T01:26:47;96543.20;;;8.05;100.00
61898;BME280;47850;50.274;18.908;2022-09-28T01:29:50;96539.48;;;8.04;100.00
61898;BME280;47850;50.274;18.908;2022-09-28T01:35:25;96537.89;;;8.03;100.00
61898;BME280;47850;50.274;18.908;2022-09-28T01:40:55;96539.35;;;8.03;100.00
61898;BME280;47850;50.274;18.908;2022-09-28T01:43:41;96543.73;;;8.01;100.00
61898;BME280;47850;50.274;18.908;2022-09-28T01:46:29;96543.20;;;7.99;100.00
61898;BME280;47850;50.274;18.908;2022-09-28T01:49:26;96545.89;;;7.95;100.00
61898;BME280;47850;50.274;18.908;2022-09-28T01:55:11;96548.35;;;7.92;100.00
61898;BME280;47850;50.274;18.908;2022-09-28T01:58:00;96548.04;;;7.92;100.00
61898;BME280;47850;50.274;18.908;2022-09-28T02:00:47;96549.89;;;7.92;100.00
61898;BME280;47850;50.274;18.908;2022-09-28T02:03:37;96545.31;;;7.89;100.00
61898;BME280;47850;50.274;18.908;2022-09-28T02:06:33;96546.64;;;7.87;100.00
61898;BME280;47850;50.274;18.908;2022-09-28T02:09:21;96545.73;;;7.85;100.00
61898;BME280;47850;50.274;18.908;2022-09-28T02:12:09;96541.44;;;7.81;100.00
61898;BME280;47850;50.274;18.908;2022-09-28T02:14:55;96541.47;;;7.77;100.00
61898;BME280;47850;50.274;18.908;2022-09-28T02:17:44;96540.38;;;7.72;100.00
61898;BME280;47850;50.274;18.908;2022-09-28T02:20:29;96538.74;;;7.66;100.00
61898;BME280;47850;50.274;18.908;2022-09-28T02:23:15;96541.63;;;7.60;100.00
61898;BME280;47850;50.274;18.908;2022-09-28T02:26:01;96541.02;;;7.53;100.00
61898;BME280;47850;50.274;18.908;2022-09-28T02:28:46;96539.37;;;7.47;100.00
61898;BME280;47850;50.274;18.908;2022-09-28T02:31:30;96542.00;;;7.42;100.00
61898;BME280;47850;50.274;18.908;2022-09-28T02:34:14;96548.04;;;7.37;100.00
61898;BME280;47850;50.274;18.908;2022-09-28T02:36:58;96551.39;;;7.33;100.00
61898;BME280;47850;50.274;18.908;2022-09-28T02:39:44;96551.11;;;7.29;100.00
61898;BME280;47850;50.274;18.908;2022-09-28T02:42:32;96552.98;;;7.25;100.00
61898;BME280;47850;50.274;18.908;2022-09-28T02:51:14;96555.33;;;7.08;100.00
61898;BME280;47850;50.274;18.908;2022-09-28T02:57:04;96553.86;;;6.97;100.00
61898;BME280;47850;50.274;18.908;2022-09-28T02:59:59;96548.85;;;6.91;100.00
61898;BME280;47850;50.274;18.908;2022-09-28T03:02:58;96550.58;;;6.85;100.00
61898;BME280;47850;50.274;18.908;2022-09-28T03:05:46;96552.04;;;6.80;100.00
61898;BME280;47850;50.274;18.908;2022-09-28T03:11:39;96555.45;;;6.73;100.00
61898;BME280;47850;50.274;18.908;2022-09-28T03:14:25;96558.34;;;6.72;100.00
61898;BME280;47850;50.274;18.908;2022-09-28T03:17:09;96561.05;;;6.72;100.00
61898;BME280;47850;50.274;18.908;2022-09-28T03:19:54;96556.95;;;6.72;100.00
61898;BME280;47850;50.274;18.908;2022-09-28T03:22:38;96558.16;;;6.73;100.00
61898;BME280;47850;50.274;18.908;2022-09-28T03:25:22;96554.84;;;6.73;100.00
61898;BME280;47850;50.274;18.908;2022-09-28T03:28:06;96558.27;;;6.74;100.00
61898;BME280;47850;50.274;18.908;2022-09-28T03:30:50;96555.41;;;6.74;100.00
61898;BME280;47850;50.274;18.908;2022-09-28T03:33:34;96555.81;;;6.75;100.00
61898;BME280;47850;50.274;18.908;2022-09-28T03:36:18;96556.30;;;6.76;100.00
61898;BME280;47850;50.274;18.908;2022-09-28T03:39:02;96557.70;;;6.76;100.00
61898;BME280;47850;50.274;18.908;2022-09-28T03:41:47;96556.19;;;6.75;100.00
61898;BME280;47850;50.274;18.908;2022-09-28T03:44:31;96555.81;;;6.70;100.00
61898;BME280;47850;50.274;18.908;2022-09-28T03:47:15;96560.64;;;6.67;100.00
61898;BME280;47850;50.274;18.908;2022-09-28T03:50:01;96562.02;;;6.62;100.00
61898;BME280;47850;50.274;18.908;2022-09-28T03:52:44;96567.15;;;6.58;100.00
61898;BME280;47850;50.274;18.908;2022-09-28T03:55:28;96571.81;;;6.54;100.00
61898;BME280;47850;50.274;18.908;2022-09-28T03:58:13;96570.52;;;6.52;100.00
61898;BME280;47850;50.274;18.908;2022-09-28T04:01:01;96569.80;;;6.50;100.00
61898;BME280;47850;50.274;18.908;2022-09-28T04:03:27;96569.95;;;6.47;100.00
61898;BME280;47850;50.274;18.908;2022-09-28T04:05:57;96565.89;;;6.45;100.00
61898;BME280;47850;50.274;18.908;2022-09-28T04:08:26;96564.00;;;6.42;100.00
61898;BME280;47850;50.274;18.908;2022-09-28T04:10:56;96566.16;;;6.39;100.00
61898;BME280;47850;50.274;18.908;2022-09-28T04:13:26;96563.67;;;6.36;100.00
61898;BME280;47850;50.274;18.908;2022-09-28T04:15:58;96567.30;;;6.34;100.00
61898;BME280;47850;50.274;18.908;2022-09-28T04:18:28;96562.89;;;6.30;100.00
61898;BME280;47850;50.274;18.908;2022-09-28T04:20:58;96562.69;;;6.27;100.00
61898;BME280;47850;50.274;18.908;2022-09-28T04:23:28;96563.64;;;6.25;100.00
61898;BME280;47850;50.274;18.908;2022-09-28T04:25:58;96563.42;;;6.23;100.00
61898;BME280;47850;50.274;18.908;2022-09-28T04:28:27;96564.64;;;6.22;100.00
61898;BME280;47850;50.274;18.908;2022-09-28T04:31:17;96569.64;;;6.22;100.00
61898;BME280;47850;50.274;18.908;2022-09-28T04:33:46;96564.77;;;6.22;100.00
61898;BME280;47850;50.274;18.908;2022-09-28T04:36:16;96566.36;;;6.23;99.91
61898;BME280;47850;50.274;18.908;2022-09-28T04:38:47;96563.20;;;6.23;99.88
61898;BME280;47850;50.274;18.908;2022-09-28T04:41:17;96563.95;;;6.25;99.79
61898;BME280;47850;50.274;18.908;2022-09-28T04:43:46;96566.41;;;6.27;99.79
61898;BME280;47850;50.274;18.908;2022-09-28T04:46:16;96566.05;;;6.28;99.79
61898;BME280;47850;50.274;18.908;2022-09-28T04:48:46;96563.02;;;6.29;99.69
61898;BME280;47850;50.274;18.908;2022-09-28T04:51:15;96561.61;;;6.31;99.78
61898;BME280;47850;50.274;18.908;2022-09-28T04:53:45;96557.11;;;6.33;99.63
61898;BME280;47850;50.274;18.908;2022-09-28T04:56:14;96559.16;;;6.34;99.62
61898;BME280;47850;50.274;18.908;2022-09-28T04:58:44;96559.22;;;6.35;99.53
61898;BME280;47850;50.274;18.908;2022-09-28T05:01:15;96563.91;;;6.37;99.50
61898;BME280;47850;50.274;18.908;2022-09-28T05:03:45;96566.86;;;6.39;99.48
61898;BME280;47850;50.274;18.908;2022-09-28T05:06:14;96562.58;;;6.41;99.44
61898;BME280;47850;50.274;18.908;2022-09-28T05:08:44;96561.39;;;6.42;99.36
61898;BME280;47850;50.274;18.908;2022-09-28T05:11:16;96562.14;;;6.43;99.35
61898;BME280;47850;50.274;18.908;2022-09-28T05:13:48;96560.73;;;6.43;99.30
61898;BME280;47850;50.274;18.908;2022-09-28T05:16:18;96557.03;;;6.41;99.19
61898;BME280;47850;50.274;18.908;2022-09-28T05:18:48;96555.08;;;6.38;99.09
61898;BME280;47850;50.274;18.908;2022-09-28T05:21:22;96554.30;;;6.36;99.19
61898;BME280;47850;50.274;18.908;2022-09-28T05:23:53;96560.48;;;6.34;99.23
61898;BME280;47850;50.274;18.908;2022-09-28T05:26:26;96562.70;;;6.33;99.21
61898;BME280;47850;50.274;18.908;2022-09-28T05:28:55;96567.66;;;6.34;99.41
61898;BME280;47850;50.274;18.908;2022-09-28T05:31:25;96568.39;;;6.35;99.42
61898;BME280;47850;50.274;18.908;2022-09-28T05:33:57;96566.21;;;6.36;99.47
61898;BME280;47850;50.274;18.908;2022-09-28T05:36:26;96568.73;;;6.37;99.38
61898;BME280;47850;50.274;18.908;2022-09-28T05:38:56;96564.48;;;6.37;99.34
61898;BME280;47850;50.274;18.908;2022-09-28T05:41:25;96556.61;;;6.38;99.36
61898;BME280;47850;50.274;18.908;2022-09-28T05:43:54;96562.71;;;6.40;99.42
61898;BME280;47850;50.274;18.908;2022-09-28T05:46:24;96567.23;;;6.43;99.37
61898;BME280;47850;50.274;18.908;2022-09-28T05:48:54;96568.46;;;6.47;99.47
61898;BME280;47850;50.274;18.908;2022-09-28T05:51:23;96570.90;;;6.52;99.33
61898;BME280;47850;50.274;18.908;2022-09-28T05:53:54;96572.96;;;6.61;99.22
61898;BME280;47850;50.274;18.908;2022-09-28T05:56:23;96570.14;;;6.68;99.05
61898;BME280;47850;50.274;18.908;2022-09-28T05:58:53;96571.17;;;6.78;99.00
61898;BME280;47850;50.274;18.908;2022-09-28T06:01:22;96572.29;;;6.88;98.85
61898;BME280;47850;50.274;18.908;2022-09-28T06:03:52;96577.46;;;6.97;98.64
61898;BME280;47850;50.274;18.908;2022-09-28T06:06:21;96572.10;;;7.03;98.25
61898;BME280;47850;50.274;18.908;2022-09-28T06:08:51;96572.92;;;7.09;97.74
61898;BME280;47850;50.274;18.908;2022-09-28T06:11:20;96569.13;;;7.13;97.44
61898;BME280;47850;50.274;18.908;2022-09-28T06:13:47;96564.05;;;7.14;96.93
61898;BME280;47850;50.274;18.908;2022-09-28T06:16:16;96564.70;;;7.13;96.60
61898;BME280;47850;50.274;18.908;2022-09-28T06:18:45;96566.77;;;7.12;96.76
61898;BME280;47850;50.274;18.908;2022-09-28T06:21:14;96562.14;;;7.11;96.67
61898;BME280;47850;50.274;18.908;2022-09-28T06:23:44;96562.90;;;7.08;96.62
61898;BME280;47850;50.274;18.908;2022-09-28T06:26:13;96557.40;;;7.03;96.60
61898;BME280;47850;50.274;18.908;2022-09-28T06:28:43;96553.39;;;7.01;96.78
61898;BME280;47850;50.274;18.908;2022-09-28T06:31:12;96551.94;;;7.02;96.66
61898;BME280;47850;50.274;18.908;2022-09-28T06:33:42;96548.98;;;7.04;96.69
61898;BME280;47850;50.274;18.908;2022-09-28T06:36:11;96547.04;;;7.08;96.91
61898;BME280;47850;50.274;18.908;2022-09-28T06:38:41;96549.05;;;7.15;96.88
61898;BME280;47850;50.274;18.908;2022-09-28T06:41:11;96548.43;;;7.21;96.46
61898;BME280;47850;50.274;18.908;2022-09-28T06:43:40;96547.50;;;7.27;96.18
61898;BME280;47850;50.274;18.908;2022-09-28T06:46:10;96549.27;;;7.35;95.77
61898;BME280;47850;50.274;18.908;2022-09-28T06:48:39;96546.92;;;7.43;95.68
61898;BME280;47850;50.274;18.908;2022-09-28T06:51:09;96552.69;;;7.51;95.32
61898;BME280;47850;50.274;18.908;2022-09-28T06:53:38;96555.92;;;7.61;94.51
61898;BME280;47850;50.274;18.908;2022-09-28T06:56:08;96551.10;;;7.68;93.66
61898;BME280;47850;50.274;18.908;2022-09-28T06:58:38;96554.25;;;7.74;93.31
61898;BME280;47850;50.274;18.908;2022-09-28T07:01:08;96557.66;;;7.82;92.97
61898;BME280;47850;50.274;18.908;2022-09-28T07:03:37;96559.20;;;7.92;92.39
61898;BME280;47850;50.274;18.908;2022-09-28T07:06:08;96558.62;;;8.04;91.82
61898;BME280;47850;50.274;18.908;2022-09-28T07:08:39;96557.83;;;8.11;90.94
61898;BME280;47850;50.274;18.908;2022-09-28T07:11:08;96559.09;;;8.17;90.30
61898;BME280;47850;50.274;18.908;2022-09-28T07:13:38;96559.56;;;8.25;90.87
61898;BME280;47850;50.274;18.908;2022-09-28T07:16:08;96557.94;;;8.34;90.38
61898;BME280;47850;50.274;18.908;2022-09-28T07:18:38;96556.55;;;8.39;89.72
61898;BME280;47850;50.274;18.908;2022-09-28T07:21:07;96557.96;;;8.45;88.71
61898;BME280;47850;50.274;18.908;2022-09-28T07:23:36;96562.22;;;8.50;88.12
61898;BME280;47850;50.274;18.908;2022-09-28T07:26:06;96561.81;;;8.55;87.53
61898;BME280;47850;50.274;18.908;2022-09-28T07:28:35;96562.55;;;8.62;87.94
61898;BME280;47850;50.274;18.908;2022-09-28T07:31:08;96563.80;;;8.68;86.88
61898;BME280;47850;50.274;18.908;2022-09-28T07:33:39;96569.55;;;8.79;86.86
61898;BME280;47850;50.274;18.908;2022-09-28T07:36:08;96569.27;;;8.89;86.44
61898;BME280;47850;50.274;18.908;2022-09-28T07:38:38;96561.44;;;8.95;85.47
61898;BME280;47850;50.274;18.908;2022-09-28T07:41:08;96564.48;;;9.02;85.11
61898;BME280;47850;50.274;18.908;2022-09-28T07:43:40;96559.52;;;9.14;85.57
61898;BME280;47850;50.274;18.908;2022-09-28T07:46:10;96559.70;;;9.28;83.72
61898;BME280;47850;50.274;18.908;2022-09-28T07:48:42;96556.71;;;9.42;83.95
61898;BME280;47850;50.274;18.908;2022-09-28T07:51:11;96559.95;;;9.60;83.68
61898;BME280;47850;50.274;18.908;2022-09-28T07:53:38;96557.38;;;9.76;83.26
61898;BME280;47850;50.274;18.908;2022-09-28T07:56:08;96559.31;;;9.94;82.60
61898;BME280;47850;50.274;18.908;2022-09-28T07:58:38;96557.15;;;10.08;82.16
61898;BME280;47850;50.274;18.908;2022-09-28T08:01:08;96560.72;;;10.23;81.70
61898;BME280;47850;50.274;18.908;2022-09-28T08:03:38;96566.39;;;10.33;79.25
61898;BME280;47850;50.274;18.908;2022-09-28T08:06:08;96565.11;;;10.41;78.66
61898;BME280;47850;50.274;18.908;2022-09-28T08:08:40;96566.17;;;10.47;76.94
61898;BME280;47850;50.274;18.908;2022-09-28T08:11:13;96562.98;;;10.52;78.06
61898;BME280;47850;50.274;18.908;2022-09-28T08:13:43;96558.98;;;10.66;78.37
61898;BME280;47850;50.274;18.908;2022-09-28T08:16:14;96552.16;;;10.75;77.07
61898;BME280;47850;50.274;18.908;2022-09-28T08:18:44;96550.27;;;10.83;77.27
61898;BME280;47850;50.274;18.908;2022-09-28T08:21:16;96553.45;;;10.86;76.10
61898;BME280;47850;50.274;18.908;2022-09-28T08:24:28;96551.71;;;10.81;74.63
61898;BME280;47850;50.274;18.908;2022-09-28T08:26:59;96550.98;;;10.71;74.72
61898;BME280;47850;50.274;18.908;2022-09-28T08:29:28;96550.38;;;10.63;75.23
61898;BME280;47850;50.274;18.908;2022-09-28T08:31:59;96551.91;;;10.62;74.72
61898;BME280;47850;50.274;18.908;2022-09-28T08:34:29;96542.31;;;10.58;74.74
61898;BME280;47850;50.274;18.908;2022-09-28T08:36:59;96546.30;;;10.54;74.80
61898;BME280;47850;50.274;18.908;2022-09-28T08:39:28;96550.14;;;10.51;73.91
61898;BME280;47850;50.274;18.908;2022-09-28T08:44:40;96544.54;;;10.52;74.09
61898;BME280;47850;50.274;18.908;2022-09-28T08:47:13;96540.21;;;10.66;74.49
61898;BME280;47850;50.274;18.908;2022-09-28T08:50:06;96538.55;;;10.85;73.70
61898;BME280;47850;50.274;18.908;2022-09-28T08:52:38;96540.27;;;10.98;71.05
61898;BME280;47850;50.274;18.908;2022-09-28T08:55:25;96538.67;;;11.05;70.27
61898;BME280;47850;50.274;18.908;2022-09-28T09:03:19;96534.35;;;11.44;69.20
61898;BME280;47850;50.274;18.908;2022-09-28T09:08:38;96529.77;;;11.70;68.42
61898;BME280;47850;50.274;18.908;2022-09-28T09:11:14;96532.00;;;11.78;66.51
61898;BME280;47850;50.274;18.908;2022-09-28T09:18:57;96542.47;;;11.74;66.56
61898;BME280;47850;50.274;18.908;2022-09-28T09:24:30;96549.28;;;12.01;63.94
61898;BME280;47850;50.274;18.908;2022-09-28T09:27:26;96545.91;;;12.10;61.99
61898;BME280;47850;50.274;18.908;2022-09-28T09:38:31;96548.77;;;12.45;61.85
61898;BME280;47850;50.274;18.908;2022-09-28T09:41:10;96543.23;;;12.40;62.25
61898;BME280;47850;50.274;18.908;2022-09-28T09:46:36;96545.55;;;12.49;60.54
61898;BME280;47850;50.274;18.908;2022-09-28T09:51:43;96550.94;;;12.90;59.38
61898;BME280;47850;50.274;18.908;2022-09-28T09:59:34;96537.42;;;12.98;57.49
61898;BME280;47850;50.274;18.908;2022-09-28T10:02:28;96530.45;;;12.90;59.23
61898;BME280;47850;50.274;18.908;2022-09-28T10:04:59;96523.80;;;12.89;59.83
61898;BME280;47850;50.274;18.908;2022-09-28T10:12:56;96527.23;;;13.03;58.42
61898;BME280;47850;50.274;18.908;2022-09-28T10:15:29;96515.56;;;13.01;59.02
61898;BME280;47850;50.274;18.908;2022-09-28T10:18:02;96512.75;;;12.92;57.97
61898;BME280;47850;50.274;18.908;2022-09-28T10:20:44;96517.08;;;12.80;58.42
61898;BME280;47850;50.274;18.908;2022-09-28T10:23:31;96514.15;;;12.78;59.66
61898;BME280;47850;50.274;18.908;2022-09-28T10:26:03;96513.13;;;12.70;59.53
61898;BME280;47850;50.274;18.908;2022-09-28T10:28:39;96507.70;;;12.80;60.06
61898;BME280;47850;50.274;18.908;2022-09-28T10:33:57;96503.42;;;13.25;60.59
61898;BME280;47850;50.274;18.908;2022-09-28T10:36:26;96502.21;;;13.37;59.03
61898;BME280;47850;50.274;18.908;2022-09-28T10:38:56;96496.46;;;13.39;58.58
61898;BME280;47850;50.274;18.908;2022-09-28T10:41:26;96496.46;;;13.40;58.37
61898;BME280;47850;50.274;18.908;2022-09-28T10:43:56;96493.45;;;13.35;57.90
61898;BME280;47850;50.274;18.908;2022-09-28T10:46:35;96482.10;;;13.37;58.57
61898;BME280;47850;50.274;18.908;2022-09-28T10:49:16;96479.65;;;13.52;58.11
61898;BME280;47850;50.274;18.908;2022-09-28T10:52:02;96473.59;;;13.81;58.42
61898;BME280;47850;50.274;18.908;2022-09-28T10:54:32;96480.58;;;13.99;56.53
61898;BME280;47850;50.274;18.908;2022-09-28T10:57:02;96475.10;;;14.01;55.44
61898;BME280;47850;50.274;18.908;2022-09-28T10:59:39;96471.42;;;14.17;55.75
61898;BME280;47850;50.274;18.908;2022-09-28T11:04:55;96453.67;;;14.66;55.53
61898;BME280;47850;50.274;18.908;2022-09-28T11:07:26;96448.48;;;15.05;56.15
61898;BME280;47850;50.274;18.908;2022-09-28T11:10:22;96452.27;;;15.29;54.27
61898;BME280;47850;50.274;18.908;2022-09-28T11:13:10;96452.27;;;15.28;52.66
61898;BME280;47850;50.274;18.908;2022-09-28T11:15:40;96448.88;;;15.25;52.78
61898;BME280;47850;50.274;18.908;2022-09-28T11:18:22;96447.40;;;15.30;52.40
61898;BME280;47850;50.274;18.908;2022-09-28T11:21:05;96441.65;;;15.47;53.15
61898;BME280;47850;50.274;18.908;2022-09-28T11:23:35;96434.59;;;15.53;52.57
61898;BME280;47850;50.274;18.908;2022-09-28T11:26:05;96430.58;;;15.55;51.66
61898;BME280;47850;50.274;18.908;2022-09-28T11:28:35;96435.77;;;15.47;50.58
61898;BME280;47850;50.274;18.908;2022-09-28T11:31:05;96435.70;;;15.43;50.57
61898;BME280;47850;50.274;18.908;2022-09-28T11:33:35;96440.39;;;15.57;51.17
61898;BME280;47850;50.274;18.908;2022-09-28T11:41:19;96439.89;;;15.77;50.34
61898;BME280;47850;50.274;18.908;2022-09-28T11:46:31;96428.04;;;15.73;51.08
61898;BME280;47850;50.274;18.908;2022-09-28T11:49:11;96423.86;;;15.80;50.87
61898;BME280;47850;50.274;18.908;2022-09-28T11:51:43;96421.52;;;15.86;50.08
61898;BME280;47850;50.274;18.908;2022-09-28T11:56:49;96414.20;;;18.00;46.92
61898;BME280;47850;50.274;18.908;2022-09-28T11:59:54;96416.23;;;18.42;45.36
61898;BME280;47850;50.274;18.908;2022-09-28T12:02:35;96415.55;;;18.00;44.75
61898;BME280;47850;50.274;18.908;2022-09-28T12:05:12;96416.60;;;17.33;45.99
61898;BME280;47850;50.274;18.908;2022-09-28T12:07:46;96420.42;;;16.85;47.52
61898;BME280;47850;50.274;18.908;2022-09-28T12:13:11;96416.10;;;16.10;49.68
61898;BME280;47850;50.274;18.908;2022-09-28T12:15:44;96412.48;;;15.86;51.31
61898;BME280;47850;50.274;18.908;2022-09-28T12:18:23;96417.83;;;15.73;52.29
61898;BME280;47850;50.274;18.908;2022-09-28T12:21:06;96414.23;;;15.66;52.03
61898;BME280;47850;50.274;18.908;2022-09-28T12:23:37;96419.05;;;15.56;52.18
61898;BME280;47850;50.274;18.908;2022-09-28T12:28:51;96415.55;;;15.75;52.84
61898;BME280;47850;50.274;18.908;2022-09-28T12:31:33;96415.24;;;16.04;52.70
61898;BME280;47850;50.274;18.908;2022-09-28T12:34:06;96416.14;;;16.50;51.95
61898;BME280;47850;50.274;18.908;2022-09-28T12:42:19;96399.10;;;18.50;45.49
61898;BME280;47850;50.274;18.908;2022-09-28T12:47:44;96386.58;;;18.70;45.92
61898;BME280;47850;50.274;18.908;2022-09-28T12:50:21;96380.81;;;20.30;42.20
61898;BME280;47850;50.274;18.908;2022-09-28T12:55:34;96379.42;;;21.00;40.90
61898;BME280;47850;50.274;18.908;2022-09-28T13:06:41;96386.38;;;18.74;42.17
61898;BME280;47850;50.274;18.908;2022-09-28T13:09:15;96382.04;;;17.81;44.17
61898;BME280;47850;50.274;18.908;2022-09-28T13:24:55;96383.39;;;15.09;53.96
61898;BME280;47850;50.274;18.908;2022-09-28T13:27:28;96378.05;;;14.89;54.71
61898;BME280;47850;50.274;18.908;2022-09-28T13:30:00;96378.83;;;14.70;55.53
61898;BME280;47850;50.274;18.908;2022-09-28T13:32:36;96379.80;;;14.53;56.23
61898;BME280;47850;50.274;18.908;2022-09-28T13:35:11;96377.51;;;14.42;57.12
61898;BME280;47850;50.274;18.908;2022-09-28T13:37:42;96373.81;;;14.38;57.75
61898;BME280;47850;50.274;18.908;2022-09-28T13:40:12;96372.86;;;14.33;58.44
61898;BME280;47850;50.274;18.908;2022-09-28T13:50:27;96363.05;;;13.99;60.42
61898;BME280;47850;50.274;18.908;2022-09-28T13:58:27;96360.73;;;13.86;60.99
61898;BME280;47850;50.274;18.908;2022-09-28T14:01:02;96358.83;;;13.80;62.37
61898;BME280;47850;50.274;18.908;2022-09-28T14:03:58;96356.14;;;13.72;63.17
61898;BME280;47850;50.274;18.908;2022-09-28T14:06:42;96351.17;;;13.65;64.02
61898;BME280;47850;50.274;18.908;2022-09-28T14:09:24;96349.05;;;13.62;65.14
61898;BME280;47850;50.274;18.908;2022-09-28T14:11:57;96345.27;;;13.59;66.30
61898;BME280;47850;50.274;18.908;2022-09-28T14:14:43;96344.10;;;13.55;67.22
61898;BME280;47850;50.274;18.908;2022-09-28T14:20:00;96341.23;;;13.48;69.06
61898;BME280;47850;50.274;18.908;2022-09-28T14:25:13;96337.76;;;13.40;68.31
61898;BME280;47850;50.274;18.908;2022-09-28T14:30:24;96335.98;;;13.35;68.16
61898;BME280;47850;50.274;18.908;2022-09-28T14:32:56;96332.34;;;13.30;68.70
61898;BME280;47850;50.274;18.908;2022-09-28T14:38:24;96327.38;;;13.23;70.13
61898;BME280;47850;50.274;18.908;2022-09-28T14:48:45;96324.76;;;13.02;70.39
61898;BME280;47850;50.274;18.908;2022-09-28T14:56:29;96316.27;;;12.88;71.31
61898;BME280;47850;50.274;18.908;2022-09-28T14:59:01;96306.71;;;12.83;71.42
61898;BME280;47850;50.274;18.908;2022-09-28T15:01:31;96307.70;;;12.79;71.35
61898;BME280;47850;50.274;18.908;2022-09-28T15:04:01;96307.91;;;12.75;72.25
61898;BME280;47850;50.274;18.908;2022-09-28T15:06:49;96303.35;;;12.74;72.48
61898;BME280;47850;50.274;18.908;2022-09-28T15:09:34;96317.41;;;12.72;72.35
61898;BME280;47850;50.274;18.908;2022-09-28T15:12:02;96325.22;;;12.71;72.64
61898;BME280;47850;50.274;18.908;2022-09-28T15:14:33;96332.34;;;12.71;72.79
61898;BME280;47850;50.274;18.908;2022-09-28T15:17:07;96329.96;;;12.69;72.92
61898;BME280;47850;50.274;18.908;2022-09-28T15:19:41;96328.27;;;12.70;73.06
61898;BME280;47850;50.274;18.908;2022-09-28T15:22:15;96332.18;;;12.71;73.51
61898;BME280;47850;50.274;18.908;2022-09-28T15:24:55;96335.40;;;12.72;73.77
61898;BME280;47850;50.274;18.908;2022-09-28T15:27:24;96335.31;;;12.82;74.46
61898;BME280;47850;50.274;18.908;2022-09-28T15:30:23;96344.05;;;12.79;74.83
61898;BME280;47850;50.274;18.908;2022-09-28T15:32:52;96348.09;;;12.68;75.48
61898;BME280;47850;50.274;18.908;2022-09-28T15:35:25;96359.73;;;12.52;77.13
61898;BME280;47850;50.274;18.908;2022-09-28T15:37:55;96358.59;;;12.29;79.22
61898;BME280;47850;50.274;18.908;2022-09-28T15:42:57;96351.81;;;11.82;83.71
61898;BME280;47850;50.274;18.908;2022-09-28T15:45:31;96350.53;;;11.61;84.85
61898;BME280;47850;50.274;18.908;2022-09-28T15:48:19;96355.98;;;11.43;85.84
61898;BME280;47850;50.274;18.908;2022-09-28T15:51:02;96346.71;;;11.26;86.66
61898;BME280;47850;50.274;18.908;2022-09-28T15:53:32;96332.77;;;11.15;87.63
61898;BME280;47850;50.274;18.908;2022-09-28T15:56:03;96328.86;;;11.09;87.62
61898;BME280;47850;50.274;18.908;2022-09-28T15:58:38;96328.34;;;11.05;87.71
61898;BME280;47850;50.274;18.908;2022-09-28T16:01:41;96332.45;;;11.04;87.96
61898;BME280;47850;50.274;18.908;2022-09-28T16:10:04;96337.82;;;10.93;89.49
61898;BME280;47850;50.274;18.908;2022-09-28T16:15:06;96346.11;;;10.79;90.04
61898;BME280;47850;50.274;18.908;2022-09-28T16:17:40;96350.23;;;10.75;91.21
61898;BME280;47850;50.274;18.908;2022-09-28T16:20:17;96354.76;;;10.69;92.11
61898;BME280;47850;50.274;18.908;2022-09-28T16:22:50;96357.25;;;10.64;92.43
61898;BME280;47850;50.274;18.908;2022-09-28T16:25:22;96349.91;;;10.59;93.15
61898;BME280;47850;50.274;18.908;2022-09-28T16:27:53;96346.66;;;10.56;93.41
61898;BME280;47850;50.274;18.908;2022-09-28T16:30:24;96346.22;;;10.52;93.59
61898;BME280;47850;50.274;18.908;2022-09-28T16:32:56;96345.48;;;10.51;94.18